createdAt,value
2019-04-20T00:01:03.353Z,32.70
2019-04-20T00:03:38.037Z,32.30
2019-04-20T00:06:01.856Z,32.30
2019-04-20T00:08:33.176Z,31.80
2019-04-20T00:11:07.454Z,33.60
2019-04-20T00:13:41.785Z,34.20
2019-04-20T00:15:59.916Z,35.90
2019-04-20T00:18:36.782Z,35.40
2019-04-20T00:21:18.075Z,35.10
2019-04-20T00:23:50.274Z,34.60
2019-04-20T00:26:56.373Z,35.30
2019-04-20T00:29:17.760Z,33.40
2019-04-20T00:31:40.254Z,35.20
2019-04-20T00:34:03.789Z,35.00
2019-04-20T00:36:26.282Z,36.20
2019-04-20T00:38:59.491Z,36.60
2019-04-20T00:41:25.857Z,37.30
2019-04-20T00:43:58.656Z,37.00
2019-04-20T00:46:30.560Z,37.00
2019-04-20T00:49:02.791Z,36.00
2019-04-20T00:51:39.308Z,35.90
2019-04-20T00:53:55.906Z,35.70
2019-04-20T00:56:24.464Z,36.70
2019-04-20T00:59:09.256Z,35.90
2019-04-20T01:01:42.284Z,37.60
2019-04-20T01:04:14.884Z,37.10
2019-04-20T01:07:12.312Z,37.50
2019-04-20T01:10:02.688Z,37.40
2019-04-20T01:12:35.064Z,38.60
2019-04-20T01:15:05.805Z,38.80
2019-04-20T01:17:31.323Z,39.00
2019-04-20T01:19:59.157Z,38.90
2019-04-20T01:22:30.026Z,38.50
2019-04-20T01:25:07.880Z,39.20
2019-04-20T01:27:41.171Z,38.70
2019-04-20T01:30:05.866Z,38.70
2019-04-20T01:32:34.359Z,38.70
2019-04-20T01:35:14.012Z,37.90
2019-04-20T01:37:38.427Z,39.00
2019-04-20T01:40:00.401Z,39.50
2019-04-20T01:42:26.081Z,39.60
2019-04-20T01:44:57.070Z,39.20
2019-04-20T01:47:32.300Z,39.10
2019-04-20T01:50:03.812Z,40.70
2019-04-20T01:52:44.263Z,41.20
2019-04-20T01:55:33.643Z,39.80
2019-04-20T01:58:05.064Z,40.80
2019-04-20T02:00:44.960Z,40.30
2019-04-20T02:03:36.982Z,40.00
2019-04-20T02:06:07.555Z,40.00
2019-04-20T02:08:34.376Z,41.90
2019-04-20T02:11:06.223Z,42.30
2019-04-20T02:13:43.619Z,43.00
2019-04-20T02:16:11.430Z,42.20
2019-04-20T02:18:44.225Z,43.10
2019-04-20T02:21:22.016Z,42.40
2019-04-20T02:23:45.506Z,43.60
2019-04-20T02:26:05.116Z,44.30
2019-04-20T02:29:00.721Z,44.70
2019-04-20T02:31:44.556Z,44.70
2019-04-20T02:34:40.015Z,44.70
2019-04-20T02:39:45.539Z,45.20
2019-04-20T02:42:12.062Z,45.80
2019-04-20T02:44:42.686Z,45.20
2019-04-20T02:49:51.372Z,45.90
2019-04-20T02:52:12.820Z,46.50
2019-04-20T02:54:55.043Z,46.70
2019-04-20T03:01:55.311Z,46.90
2019-04-20T03:04:17.314Z,46.90
2019-04-20T03:06:56.000Z,45.30
2019-04-20T03:09:32.547Z,47.10
2019-04-20T03:12:04.490Z,46.70
2019-04-20T03:14:21.871Z,46.20
2019-04-20T03:16:56.509Z,47.40
2019-04-20T03:19:19.784Z,46.90
2019-04-20T03:22:04.036Z,48.70
2019-04-20T03:24:31.064Z,47.80
2019-04-20T03:26:59.846Z,47.70
2019-04-20T03:29:52.568Z,48.80
2019-04-20T03:32:59.445Z,49.30
2019-04-20T03:35:12.172Z,48.70
2019-04-20T03:37:36.981Z,48.20
2019-04-20T03:39:58.023Z,48.50
2019-04-20T03:42:12.897Z,48.40
2019-04-20T03:44:50.119Z,48.00
2019-04-20T03:47:25.483Z,49.30
2019-04-20T03:50:06.202Z,48.90
2019-04-20T03:52:43.094Z,48.70
2019-04-20T03:55:36.970Z,49.90
2019-04-20T03:58:33.219Z,50.20
2019-04-20T04:01:47.832Z,50.30
2019-04-20T04:04:12.148Z,51.70
2019-04-20T04:06:32.105Z,51.90
2019-04-20T04:09:02.568Z,53.10
2019-04-20T04:11:41.420Z,52.50
2019-04-20T04:13:52.434Z,52.60
2019-04-20T04:16:22.183Z,52.50
2019-04-20T04:19:01.579Z,51.90
2019-04-20T04:21:35.509Z,51.50
2019-04-20T04:24:07.334Z,51.40
2019-04-20T04:26:38.027Z,52.00
2019-04-20T04:29:17.313Z,51.40
2019-04-20T04:31:39.122Z,52.40
2019-04-20T04:34:07.392Z,51.60
2019-04-20T04:36:39.362Z,52.70
2019-04-20T04:39:08.875Z,52.10
2019-04-20T04:41:36.467Z,52.10
2019-04-20T04:44:06.061Z,52.60
2019-04-20T04:46:18.638Z,52.60
2019-04-20T04:48:50.794Z,53.60
2019-04-20T04:51:22.990Z,54.00
2019-04-20T04:53:56.240Z,54.30
2019-04-20T04:56:19.762Z,53.90
2019-04-20T04:58:46.753Z,53.50
2019-04-20T05:01:20.723Z,53.00
2019-04-20T05:04:10.605Z,52.90
2019-04-20T05:06:35.417Z,52.50
2019-04-20T05:08:54.977Z,52.60
2019-04-20T05:11:21.619Z,53.50
2019-04-20T05:13:56.661Z,53.10
2019-04-20T05:16:43.814Z,52.90
2019-04-20T05:21:53.860Z,51.70
2019-04-20T05:24:34.816Z,51.40
2019-04-20T05:27:32.040Z,51.00
2019-04-20T05:29:39.510Z,50.40
2019-04-20T05:32:14.175Z,50.10
2019-04-20T05:35:02.350Z,49.80
2019-04-20T05:37:34.280Z,50.50
2019-04-20T05:39:57.531Z,50.20
2019-04-20T05:42:32.800Z,50.00
2019-04-20T05:44:57.132Z,48.80
2019-04-20T05:47:27.028Z,48.60
2019-04-20T05:49:53.764Z,49.10
2019-04-20T05:52:35.045Z,47.90
2019-04-20T05:54:58.013Z,48.50
2019-04-20T05:57:30.246Z,47.80
2019-04-20T06:00:05.587Z,47.00
2019-04-20T06:02:29.370Z,45.00
2019-04-20T06:05:06.409Z,43.80
2019-04-20T06:07:31.371Z,43.50
2019-04-20T06:09:59.948Z,43.40
2019-04-20T06:12:33.015Z,43.60
2019-04-20T06:15:04.504Z,43.50
2019-04-20T06:17:53.351Z,43.90
2019-04-20T06:20:31.264Z,44.20
2019-04-20T06:23:09.784Z,45.00
2019-04-20T06:28:03.717Z,45.70
2019-04-20T06:30:32.198Z,44.70
2019-04-20T06:34:24.084Z,43.50
2019-04-20T06:36:36.359Z,42.80
2019-04-20T06:39:08.340Z,42.40
2019-04-20T06:41:45.258Z,41.30
2019-04-20T06:44:00.654Z,41.80
2019-04-20T06:46:29.210Z,42.30
2019-04-20T06:49:04.082Z,41.80
2019-04-20T06:51:39.981Z,42.60
2019-04-20T06:54:12.338Z,42.50
2019-04-20T06:56:54.470Z,43.40
2019-04-20T06:59:26.275Z,43.10
2019-04-20T07:01:56.943Z,43.00
2019-04-20T07:06:56.609Z,42.70
2019-04-20T07:09:30.878Z,43.20
2019-04-20T07:11:53.013Z,43.00
2019-04-20T07:14:07.555Z,42.50
2019-04-20T07:16:59.158Z,42.40
2019-04-20T07:19:35.265Z,42.10
2019-04-20T07:22:26.355Z,41.60
2019-04-20T07:24:52.030Z,42.40
2019-04-20T07:27:14.450Z,42.20
2019-04-20T07:29:49.332Z,41.60
2019-04-20T07:32:10.277Z,40.80
2019-04-20T07:34:50.457Z,41.80
2019-04-20T07:39:55.804Z,40.70
2019-04-20T07:42:23.068Z,40.50
2019-04-20T07:44:56.680Z,39.90
2019-04-20T07:47:21.807Z,39.80
2019-04-20T07:49:45.648Z,39.50
2019-04-20T07:51:59.610Z,39.30
2019-04-20T07:55:03.490Z,38.70
2019-04-20T07:57:14.652Z,38.00
2019-04-20T07:59:39.709Z,38.60
2019-04-20T08:02:58.729Z,38.50
2019-04-20T08:05:36.729Z,38.30
2019-04-20T08:08:13.185Z,34.80
2019-04-20T08:10:47.154Z,29.10
2019-04-20T08:13:17.384Z,26.30
2019-04-20T08:18:13.588Z,22.70
2019-04-20T08:20:47.074Z,20.40
2019-04-20T08:23:12.271Z,19.80
2019-04-20T08:25:35.835Z,18.90
2019-04-20T08:28:16.720Z,17.70
2019-04-20T08:31:17.908Z,18.10
2019-04-20T08:34:04.492Z,17.40
2019-04-20T08:36:31.058Z,16.70
2019-04-20T08:41:20.568Z,16.20
2019-04-20T08:44:21.179Z,16.00
2019-04-20T08:46:25.185Z,16.00
2019-04-20T08:48:55.802Z,16.00
2019-04-20T08:51:25.484Z,16.00
2019-04-20T08:53:51.809Z,16.30
2019-04-20T08:56:18.775Z,15.90
2019-04-20T08:58:33.966Z,16.60
2019-04-20T09:01:06.566Z,15.50
2019-04-20T09:03:46.359Z,14.90
2019-04-20T09:06:14.338Z,16.00
2019-04-20T09:08:47.766Z,15.40
2019-04-20T09:11:19.682Z,15.80
2019-04-20T09:13:40.755Z,15.70
2019-04-20T09:16:02.601Z,14.90
2019-04-20T09:18:47.624Z,15.20
2019-04-20T09:21:19.981Z,16.10
2019-04-20T09:23:57.687Z,16.60
2019-04-20T09:26:29.691Z,17.00
2019-04-20T09:29:05.674Z,16.10
2019-04-20T09:31:39.247Z,16.10
2019-04-20T09:34:26.302Z,16.50
2019-04-20T09:37:22.281Z,16.10
2019-04-20T09:40:04.835Z,15.80
2019-04-20T09:42:18.319Z,14.90
2019-04-20T09:44:50.905Z,15.30
2019-04-20T09:47:23.821Z,13.90
2019-04-20T09:49:58.040Z,15.30
2019-04-20T09:52:28.984Z,15.00
2019-04-20T09:55:03.226Z,14.90
2019-04-20T09:57:40.981Z,14.10
2019-04-20T10:00:10.248Z,14.70
2019-04-20T10:02:24.116Z,14.10
2019-04-20T10:04:49.442Z,14.40
2019-04-20T10:07:21.354Z,13.60
2019-04-20T10:09:50.665Z,12.70
2019-04-20T10:12:20.001Z,12.90
2019-04-20T10:14:49.039Z,12.60
2019-04-20T10:17:18.072Z,13.20
2019-04-20T10:19:46.682Z,11.80
2019-04-20T10:22:18.326Z,12.30
2019-04-20T10:24:50.030Z,12.20
2019-04-20T10:27:16.791Z,12.50
2019-04-20T10:29:45.833Z,11.30
2019-04-20T10:32:16.021Z,11.60
2019-04-20T10:34:46.207Z,11.00
2019-04-20T10:37:24.145Z,11.50
2019-04-20T10:39:52.434Z,9.90
2019-04-20T10:42:20.519Z,10.80
2019-04-20T10:44:55.164Z,10.00
2019-04-20T10:47:22.990Z,10.50
2019-04-20T10:49:51.189Z,11.10
2019-04-20T10:52:20.014Z,11.20
2019-04-20T10:54:48.159Z,10.00
2019-04-20T10:57:17.446Z,9.60
2019-04-20T10:59:45.742Z,12.00
2019-04-20T11:02:17.897Z,9.70
2019-04-20T11:04:46.475Z,9.90
2019-04-20T11:07:14.723Z,9.70
2019-04-20T11:09:42.838Z,8.90
2019-04-20T11:12:12.381Z,8.40
2019-04-20T11:14:43.830Z,9.00
2019-04-20T11:17:10.483Z,8.10
2019-04-20T11:19:39.201Z,8.60
2019-04-20T11:22:08.404Z,7.30
2019-04-20T11:24:36.474Z,7.40
2019-04-20T11:27:04.557Z,7.30
2019-04-20T11:29:33.863Z,7.80
2019-04-20T11:32:03.022Z,8.50
2019-04-20T11:34:33.971Z,7.30
2019-04-20T11:37:03.291Z,7.30
2019-04-20T11:39:32.895Z,7.30
2019-04-20T11:42:01.573Z,7.40
2019-04-20T11:44:31.698Z,7.00
2019-04-20T11:47:00.855Z,6.60
2019-04-20T11:49:28.865Z,8.10
2019-04-20T11:51:59.377Z,6.50
2019-04-20T11:54:28.303Z,5.60
2019-04-20T11:57:07.151Z,5.50
2019-04-20T11:59:35.426Z,6.30
2019-04-20T12:02:29.575Z,6.30
2019-04-20T12:05:09.071Z,5.50
2019-04-20T12:07:26.734Z,5.40
2019-04-20T12:09:58.496Z,5.60
2019-04-20T12:12:35.879Z,5.40
2019-04-20T12:14:54.904Z,4.10
2019-04-20T12:17:23.759Z,5.60
2019-04-20T12:19:52.976Z,5.10
2019-04-20T12:22:21.527Z,4.10
2019-04-20T12:24:50.020Z,4.40
2019-04-20T12:27:18.641Z,4.70
2019-04-20T12:29:47.891Z,5.40
2019-04-20T12:32:16.721Z,4.50
2019-04-20T12:34:45.428Z,4.60
2019-04-20T12:37:13.470Z,4.80
2019-04-20T12:39:42.848Z,4.60
2019-04-20T12:42:11.294Z,4.50
2019-04-20T12:44:39.614Z,6.00
2019-04-20T12:47:07.790Z,6.50
2019-04-20T12:49:35.939Z,3.70
2019-04-20T12:52:06.422Z,5.00
2019-04-20T12:54:34.436Z,3.70
2019-04-20T12:57:02.650Z,5.60
2019-04-20T12:59:31.665Z,4.30
2019-04-20T13:02:00.006Z,4.40
2019-04-20T13:04:27.857Z,3.90
2019-04-20T13:06:57.638Z,4.00
2019-04-20T13:09:32.731Z,3.30
2019-04-20T13:12:09.906Z,4.40
2019-04-20T13:15:36.559Z,4.50
2019-04-20T13:18:05.522Z,2.60
2019-04-20T13:20:34.134Z,4.30
2019-04-20T13:23:03.930Z,4.50
2019-04-20T13:25:32.905Z,3.70
2019-04-20T13:28:01.080Z,1.10
2019-04-20T13:30:30.040Z,1.50
2019-04-20T13:32:59.339Z,3.50
2019-04-20T13:35:28.204Z,5.40
2019-04-20T13:37:56.390Z,3.20
2019-04-20T13:40:25.665Z,3.90
2019-04-20T13:42:54.050Z,4.50
2019-04-20T13:45:22.662Z,2.30
2019-04-20T13:47:50.882Z,3.20
2019-04-20T13:50:20.038Z,1.20
2019-04-20T13:52:48.906Z,2.60
2019-04-20T13:55:17.283Z,3.70
2019-04-20T13:57:54.112Z,3.20
2019-04-20T14:00:57.320Z,1.80
2019-04-20T14:03:29.972Z,2.30
2019-04-20T14:05:58.407Z,3.20
2019-04-20T14:08:27.460Z,2.80
2019-04-20T14:10:55.800Z,3.70
2019-04-20T14:13:25.592Z,1.80
2019-04-20T14:15:53.781Z,2.40
2019-04-20T14:18:22.875Z,2.80
2019-04-20T14:20:52.134Z,2.30
2019-04-20T14:23:21.148Z,2.60
2019-04-20T14:25:49.348Z,1.00
2019-04-20T14:28:18.465Z,1.00
2019-04-20T14:30:49.867Z,1.00
2019-04-20T14:33:18.973Z,1.00
2019-04-20T14:35:48.439Z,1.80
2019-04-20T14:38:17.606Z,3.60
2019-04-20T14:40:46.327Z,3.20
2019-04-20T14:43:15.501Z,3.10
2019-04-20T14:45:43.397Z,2.60
2019-04-20T14:48:12.059Z,3.00
2019-04-20T14:50:41.290Z,1.00
2019-04-20T14:53:09.580Z,2.70
2019-04-20T14:55:37.683Z,1.60
2019-04-20T14:58:11.150Z,2.20
2019-04-20T15:00:51.768Z,1.40
2019-04-20T15:03:40.094Z,1.00
2019-04-20T15:06:07.627Z,3.10
2019-04-20T15:08:36.760Z,3.60
2019-04-20T15:11:05.229Z,3.00
2019-04-20T15:13:33.300Z,3.10
2019-04-20T15:16:02.415Z,3.10
2019-04-20T15:18:41.633Z,3.20
2019-04-20T15:21:11.424Z,2.90
2019-04-20T15:23:39.707Z,2.40
2019-04-20T15:26:08.687Z,2.90
2019-04-20T15:28:36.792Z,2.60
2019-04-20T15:31:06.018Z,2.40
2019-04-20T15:33:34.823Z,3.50
2019-04-20T15:36:04.152Z,3.20
2019-04-20T15:38:33.279Z,2.60
2019-04-20T15:41:01.204Z,2.50
2019-04-20T15:43:30.297Z,3.50
2019-04-20T15:45:59.260Z,3.10
2019-04-20T15:48:28.084Z,3.40
2019-04-20T15:50:56.279Z,3.50
2019-04-20T15:53:24.190Z,3.10
2019-04-20T15:55:52.421Z,3.20
2019-04-20T15:58:20.742Z,3.20
2019-04-20T16:00:50.914Z,4.00
2019-04-20T16:03:29.655Z,3.10
2019-04-20T16:06:05.554Z,3.80
2019-04-20T16:08:36.679Z,4.30
2019-04-20T16:11:05.228Z,4.30
2019-04-20T16:13:38.042Z,4.10
2019-04-20T16:16:12.301Z,3.80
2019-04-20T16:18:41.146Z,3.50
2019-04-20T16:21:15.620Z,3.80
2019-04-20T16:23:46.661Z,4.60
2019-04-20T16:26:22.117Z,5.60
2019-04-20T16:28:50.196Z,6.30
2019-04-20T16:31:18.396Z,5.50
2019-04-20T16:33:46.623Z,5.30
2019-04-20T16:36:14.640Z,5.40
2019-04-20T16:38:43.565Z,6.20
2019-04-20T16:41:12.558Z,5.80
2019-04-20T16:43:44.229Z,6.00
2019-04-20T16:46:11.003Z,5.90
2019-04-20T16:48:42.062Z,5.70
2019-04-20T16:51:11.154Z,6.30
2019-04-20T16:53:39.594Z,6.50
2019-04-20T16:56:08.601Z,6.70
2019-04-20T16:58:37.886Z,6.70
2019-04-20T17:01:07.567Z,7.30
2019-04-20T17:03:44.375Z,7.10
2019-04-20T17:06:06.504Z,7.70
2019-04-20T17:08:34.355Z,8.30
2019-04-20T17:11:03.464Z,8.60
2019-04-20T17:13:38.821Z,8.80
2019-04-20T17:16:01.843Z,8.90
2019-04-20T17:18:29.849Z,9.00
2019-04-20T17:21:04.485Z,9.40
2019-04-20T17:23:28.252Z,10.00
2019-04-20T17:25:57.792Z,9.90
2019-04-20T17:28:49.014Z,10.40
2019-04-20T17:31:49.371Z,10.40
2019-04-20T17:34:37.241Z,10.60
2019-04-20T17:36:48.969Z,11.00
2019-04-20T17:39:27.751Z,11.60
2019-04-20T17:42:02.915Z,12.00
2019-04-20T17:44:31.515Z,12.30
2019-04-20T17:46:59.084Z,12.70
2019-04-20T17:49:31.471Z,12.80
2019-04-20T17:52:12.605Z,13.10
2019-04-20T17:54:37.957Z,13.10
2019-04-20T17:57:09.105Z,13.60
2019-04-20T17:59:40.166Z,13.70
2019-04-20T18:02:51.042Z,14.00
2019-04-20T18:05:35.509Z,14.00
2019-04-20T18:08:07.590Z,12.80
2019-04-20T18:10:34.278Z,13.80
2019-04-20T18:12:47.733Z,15.20
2019-04-20T18:15:31.305Z,15.00
2019-04-20T18:18:23.921Z,14.60
2019-04-20T18:20:59.156Z,14.60
2019-04-20T18:23:34.409Z,15.00
2019-04-20T18:26:17.138Z,15.90
2019-04-20T18:28:54.501Z,16.00
2019-04-20T18:31:11.775Z,16.60
2019-04-20T18:33:40.542Z,16.60
2019-04-20T18:36:13.295Z,17.60
2019-04-20T18:38:46.773Z,17.90
2019-04-20T18:41:18.788Z,18.10
2019-04-20T18:43:45.848Z,18.00
2019-04-20T18:46:21.894Z,18.10
2019-04-20T18:48:57.387Z,18.10
2019-04-20T18:51:07.970Z,18.90
2019-04-20T18:53:42.332Z,18.90
2019-04-20T18:56:09.484Z,19.00
2019-04-20T18:58:37.798Z,21.00
2019-04-20T19:01:07.428Z,21.50
2019-04-20T19:03:41.836Z,21.00
2019-04-20T19:06:07.196Z,21.00
2019-04-20T19:08:40.454Z,22.00
2019-04-20T19:11:09.854Z,22.40
2019-04-20T19:13:48.171Z,22.50
2019-04-20T19:16:35.631Z,21.40
2019-04-20T19:19:27.619Z,22.70
2019-04-20T19:21:48.112Z,22.50
2019-04-20T19:24:19.396Z,23.00
2019-04-20T19:26:51.556Z,23.90
2019-04-20T19:29:23.206Z,23.20
2019-04-20T19:32:07.354Z,23.80
2019-04-20T19:34:33.534Z,23.40
2019-04-20T19:37:00.341Z,23.60
2019-04-20T19:39:29.500Z,23.90
2019-04-20T19:41:54.022Z,24.30
2019-04-20T19:44:28.866Z,24.40
2019-04-20T19:47:04.900Z,24.80
2019-04-20T19:49:25.491Z,24.60
2019-04-20T19:52:20.692Z,24.70
2019-04-20T19:54:35.565Z,25.30
2019-04-20T19:57:01.315Z,25.20
2019-04-20T19:59:40.501Z,25.30
2019-04-20T20:02:05.551Z,24.70
2019-04-20T20:04:41.381Z,24.90
2019-04-20T20:07:07.036Z,25.80
2019-04-20T20:09:39.570Z,24.90
2019-04-20T20:12:10.455Z,25.80
2019-04-20T20:14:39.743Z,25.80
2019-04-20T20:17:27.150Z,26.30
2019-04-20T20:20:05.350Z,26.00
2019-04-20T20:22:16.892Z,26.10
2019-04-20T20:24:34.895Z,26.20
2019-04-20T20:27:07.591Z,26.20
2019-04-20T20:29:45.382Z,27.00
2019-04-20T20:32:17.711Z,27.10
2019-04-20T20:34:42.164Z,27.70
2019-04-20T20:37:11.099Z,28.10
2019-04-20T20:39:38.424Z,29.10
2019-04-20T20:42:18.949Z,29.60
2019-04-20T20:44:45.725Z,29.50
2019-04-20T20:47:34.153Z,29.10
2019-04-20T20:50:03.145Z,29.40
2019-04-20T20:52:21.877Z,29.50
2019-04-20T20:54:44.907Z,29.40
2019-04-20T20:57:11.372Z,29.00
2019-04-20T20:59:43.033Z,28.50
2019-04-20T21:02:12.435Z,28.00
2019-04-20T21:04:35.434Z,28.50
2019-04-20T21:07:04.592Z,28.20
2019-04-20T21:09:33.457Z,28.20
2019-04-20T21:12:07.014Z,28.60
2019-04-20T21:14:34.746Z,28.30
2019-04-20T21:17:10.093Z,28.40
2019-04-20T21:19:50.804Z,29.50
2019-04-20T21:22:10.006Z,28.80
2019-04-20T21:24:35.880Z,28.40
2019-04-20T21:27:08.862Z,29.10
2019-04-20T21:29:41.416Z,29.10
2019-04-20T21:32:09.361Z,29.20
2019-04-20T21:34:35.336Z,29.20
2019-04-20T21:37:10.611Z,29.40
2019-04-20T21:39:42.447Z,29.30
2019-04-20T21:42:10.393Z,29.40
2019-04-20T21:44:40.036Z,29.90
2019-04-20T21:47:03.440Z,29.80
2019-04-20T21:49:46.222Z,29.70
2019-04-20T21:52:05.067Z,30.20
2019-04-20T21:54:31.983Z,30.70
2019-04-20T21:57:03.927Z,31.40
2019-04-20T21:59:38.421Z,31.40
2019-04-20T22:02:06.540Z,30.80
2019-04-20T22:04:31.304Z,31.60
2019-04-20T22:07:00.451Z,31.70
2019-04-20T22:09:34.776Z,31.50
2019-04-20T22:12:00.269Z,30.60
2019-04-20T22:14:32.253Z,31.00
2019-04-20T22:17:00.816Z,31.30
2019-04-20T22:19:41.146Z,31.60
2019-04-20T22:22:11.686Z,32.70
2019-04-20T22:24:44.992Z,33.40
2019-04-20T22:27:09.610Z,33.60
2019-04-20T22:29:30.256Z,32.90
2019-04-20T22:32:03.982Z,34.30
2019-04-20T22:34:29.858Z,33.80
2019-04-20T22:36:58.181Z,33.90
2019-04-20T22:39:39.402Z,35.40
2019-04-20T22:42:07.346Z,35.50
2019-04-20T22:44:34.353Z,35.50
2019-04-20T22:47:05.506Z,35.20
2019-04-20T22:49:50.273Z,35.70
2019-04-20T22:52:14.283Z,35.10
2019-04-20T22:54:46.796Z,35.60
2019-04-20T22:57:10.681Z,35.60
2019-04-20T22:59:42.177Z,34.60
2019-04-20T23:02:04.170Z,35.60
2019-04-20T23:04:33.027Z,35.50
2019-04-20T23:07:01.081Z,35.80
2019-04-20T23:09:32.765Z,35.40
2019-04-20T23:12:06.066Z,37.40
2019-04-20T23:14:28.923Z,37.50
2019-04-20T23:16:57.600Z,36.90
2019-04-20T23:19:34.477Z,36.80
2019-04-20T23:22:01.227Z,36.80
2019-04-20T23:24:27.029Z,36.00
2019-04-20T23:26:55.367Z,36.20
2019-04-20T23:29:27.234Z,36.40
2019-04-20T23:31:59.420Z,37.40
2019-04-20T23:34:28.451Z,36.60
2019-04-20T23:36:54.803Z,36.70
2019-04-20T23:39:29.007Z,35.20
2019-04-20T23:41:58.654Z,36.40
2019-04-20T23:44:33.539Z,37.40
2019-04-20T23:47:13.751Z,37.70
2019-04-20T23:49:55.705Z,37.90
2019-04-20T23:52:35.609Z,37.50
2019-04-20T23:54:52.593Z,35.80
2019-04-20T23:57:13.574Z,37.70
2019-04-20T23:59:44.866Z,36.20
